Time;durP1;ratioP1;P1;durP2;ratioP2;P2;SDS_P1;SDS_P2;PMS_P1;PMS_P2;Temp;Humidity;BMP_temperature;BMP_pressure;BME280_temperature;BME280_humidity;BME280_pressure;Samples;Min_cycle;Max_cycle;Signal;HPM_P1;HPM_P2
2024/03/19 00:01:54;;;;;;;2.10;2.00;;;;;;;;;;6160240;28;20302;-59
2024/03/19 00:04:58;;;;;;;2.30;2.20;;;;;;;;;;6160080;28;20305;-60
2024/03/19 00:08:01;;;;;;;2.47;2.00;;;;;;;;;;6160404;28;20309;-60
2024/03/19 00:11:04;;;;;;;2.23;1.93;;;;;;;;;;6150208;28;20294;-60
2024/03/19 00:14:07;;;;;;;4.07;2.30;;;;;;;;;;6140806;29;20298;-59
2024/03/19 00:17:10;;;;;;;2.00;1.87;;;;;;;;;;6141015;29;20308;-60
2024/03/19 00:20:15;;;;;;;1.80;1.80;;;;;;;;;;6140534;29;20299;-59
2024/03/19 00:23:18;;;;;;;2.03;1.77;;;;;;;;;;6140116;29;20313;-58
2024/03/19 00:26:21;;;;;;;3.07;2.17;;;;;;;;;;6140705;29;20286;-61
2024/03/19 00:29:23;;;;;;;1.93;1.90;;;;;;;;;;6140552;29;20293;-59
2024/03/19 00:32:26;;;;;;;1.67;1.60;;;;;;;;;;6140958;29;20293;-60
2024/03/19 00:35:31;;;;;;;2.03;2.00;;;;;;;;;;6139302;29;20310;-59
2024/03/19 00:38:34;;;;;;;2.93;1.80;;;;;;;;;;6140480;29;20302;-60
2024/03/19 00:41:37;;;;;;;5.30;2.00;;;;;;;;;;6155679;28;20298;-60
2024/03/19 00:44:40;;;;;;;5.67;2.00;;;;;;;;;;6162895;29;20293;-61
2024/03/19 00:47:43;;;;;;;4.83;2.20;;;;;;;;;;6164095;29;20297;-59
2024/03/19 00:50:47;;;;;;;3.30;2.10;;;;;;;;;;6163437;29;20305;-59
2024/03/19 00:53:50;;;;;;;6.33;2.23;;;;;;;;;;6163426;28;20302;-59
2024/03/19 00:56:53;;;;;;;2.63;2.17;;;;;;;;;;6163540;29;20301;-59
2024/03/19 00:59:56;;;;;;;2.30;2.20;;;;;;;;;;6163199;28;20581;-60
2024/03/19 01:02:59;;;;;;;2.20;1.93;;;;;;;;;;6163867;29;20290;-60
2024/03/19 01:06:04;;;;;;;3.47;2.00;;;;;;;;;;6163317;29;20297;-59
2024/03/19 01:09:12;;;;;;;3.57;2.40;;;;;;;;;;6163331;28;20289;-59
2024/03/19 01:12:15;;;;;;;2.53;2.33;;;;;;;;;;6143508;29;20309;-59
2024/03/19 01:15:18;;;;;;;2.63;2.43;;;;;;;;;;6139370;29;20290;-59
2024/03/19 01:18:20;;;;;;;2.13;2.13;;;;;;;;;;6139177;29;20293;-59
2024/03/19 01:21:25;;;;;;;2.53;2.40;;;;;;;;;;6139335;29;20593;-60
2024/03/19 01:24:28;;;;;;;4.23;2.57;;;;;;;;;;6139076;29;20294;-61
2024/03/19 01:27:32;;;;;;;2.70;2.60;;;;;;;;;;6139439;29;20291;-60
2024/03/19 01:30:35;;;;;;;3.43;2.70;;;;;;;;;;6139396;29;20297;-60
2024/03/19 01:33:38;;;;;;;2.93;2.73;;;;;;;;;;6139101;29;20563;-60
2024/03/19 01:36:42;;;;;;;5.97;2.70;;;;;;;;;;6123503;29;20314;-60
2024/03/19 01:39:45;;;;;;;3.10;2.90;;;;;;;;;;6139051;29;20338;-59
2024/03/19 01:42:48;;;;;;;4.07;2.37;;;;;;;;;;6115959;29;20290;-60
2024/03/19 01:46:19;;;;;;;2.97;2.80;;;;;;;;;;6114191;29;20613;-59
2024/03/19 01:49:24;;;;;;;2.93;2.77;;;;;;;;;;6114940;29;20294;-59
2024/03/19 01:52:29;;;;;;;3.53;3.00;;;;;;;;;;6115191;29;20295;-59
2024/03/19 01:55:33;;;;;;;5.43;3.60;;;;;;;;;;6115063;29;20308;-60
2024/03/19 01:58:37;;;;;;;4.83;3.23;;;;;;;;;;6114646;29;20294;-60
2024/03/19 02:01:39;;;;;;;8.33;2.97;;;;;;;;;;6114366;29;20294;-62
2024/03/19 02:04:43;;;;;;;3.47;2.70;;;;;;;;;;6114761;29;20297;-60
2024/03/19 02:07:48;;;;;;;2.83;2.73;;;;;;;;;;6115099;29;20291;-60
2024/03/19 02:10:50;;;;;;;4.37;3.10;;;;;;;;;;6131931;28;20578;-60
2024/03/19 02:13:54;;;;;;;2.30;2.20;;;;;;;;;;6161584;28;20298;-60
2024/03/19 02:16:56;;;;;;;5.40;2.70;;;;;;;;;;6162096;28;20293;-60
2024/03/19 02:19:59;;;;;;;2.57;2.47;;;;;;;;;;6161645;28;20321;-61
2024/03/19 02:23:04;;;;;;;3.97;2.20;;;;;;;;;;6161545;28;20293;-59
2024/03/19 02:26:07;;;;;;;4.70;2.27;;;;;;;;;;6161586;28;20433;-60
2024/03/19 02:29:10;;;;;;;3.50;2.40;;;;;;;;;;6161805;28;20289;-60
2024/03/19 02:32:13;;;;;;;2.53;2.43;;;;;;;;;;6162029;28;20297;-59
2024/03/19 02:35:15;;;;;;;2.40;2.30;;;;;;;;;;6160728;28;20298;-60
2024/03/19 02:38:20;;;;;;;4.03;2.47;;;;;;;;;;6161166;28;20321;-60
2024/03/19 02:41:22;;;;;;;4.53;2.50;;;;;;;;;;6148405;29;20577;-61
2024/03/19 02:44:25;;;;;;;2.57;2.37;;;;;;;;;;6136935;29;20290;-59
2024/03/19 02:47:28;;;;;;;3.43;2.83;;;;;;;;;;6136601;29;20298;-60
2024/03/19 02:50:31;;;;;;;2.70;2.60;;;;;;;;;;6137144;29;20297;-61
2024/03/19 02:53:35;;;;;;;3.43;2.60;;;;;;;;;;6137113;29;20416;-60
2024/03/19 02:56:38;;;;;;;2.83;2.70;;;;;;;;;;6137691;29;20290;-60
2024/03/19 02:59:41;;;;;;;2.70;2.50;;;;;;;;;;6136570;29;20291;-60
2024/03/19 03:02:44;;;;;;;4.93;2.67;;;;;;;;;;6137785;29;20294;-60
2024/03/19 03:05:47;;;;;;;3.97;2.50;;;;;;;;;;6120563;29;20302;-59
2024/03/19 03:08:51;;;;;;;2.77;2.67;;;;;;;;;;6136547;29;20594;-59
2024/03/19 03:11:54;;;;;;;2.60;2.60;;;;;;;;;;6154764;29;20288;-59
2024/03/19 03:14:57;;;;;;;3.60;2.57;;;;;;;;;;6160577;29;20309;-60
2024/03/19 03:17:59;;;;;;;2.80;2.70;;;;;;;;;;6160793;29;20292;-60
2024/03/19 03:21:02;;;;;;;2.47;2.27;;;;;;;;;;6160059;28;20290;-59
2024/03/19 03:24:07;;;;;;;2.20;2.20;;;;;;;;;;6160411;28;20291;-59
2024/03/19 03:27:10;;;;;;;2.67;2.53;;;;;;;;;;6161053;29;20296;-60
2024/03/19 03:30:13;;;;;;;2.40;2.20;;;;;;;;;;6160458;29;20296;-59
2024/03/19 03:33:16;;;;;;;2.83;2.73;;;;;;;;;;6160195;28;20472;-60
2024/03/19 03:36:19;;;;;;;2.50;2.30;;;;;;;;;;6160470;29;20296;-59
2024/03/19 03:39:23;;;;;;;2.03;2.03;;;;;;;;;;6143221;29;20296;-59
2024/03/19 03:42:26;;;;;;;2.20;2.20;;;;;;;;;;6139140;29;20296;-59
2024/03/19 03:45:29;;;;;;;2.20;2.20;;;;;;;;;;6135432;29;20363;-59
2024/03/19 03:48:32;;;;;;;2.40;2.30;;;;;;;;;;6136728;29;20322;-60
2024/03/19 03:51:34;;;;;;;2.20;2.20;;;;;;;;;;6136462;29;20306;-60
2024/03/19 03:54:39;;;;;;;3.03;1.90;;;;;;;;;;6136134;29;20293;-60
2024/03/19 03:57:42;;;;;;;3.23;2.00;;;;;;;;;;6136515;29;20590;-60
2024/03/19 04:00:45;;;;;;;3.40;2.10;;;;;;;;;;6135984;29;20301;-59
2024/03/19 04:03:49;;;;;;;3.17;2.50;;;;;;;;;;6138923;29;20535;-59
2024/03/19 04:06:52;;;;;;;2.57;2.40;;;;;;;;;;6153549;29;20290;-59
2024/03/19 04:09:56;;;;;;;2.63;2.40;;;;;;;;;;6135828;29;20301;-59
2024/03/19 04:12:59;;;;;;;2.27;2.20;;;;;;;;;;6154723;29;20488;-60
2024/03/19 04:16:02;;;;;;;2.63;2.40;;;;;;;;;;6159635;28;20297;-60
2024/03/19 04:19:05;;;;;;;2.10;2.00;;;;;;;;;;6159714;28;20358;-60
2024/03/19 04:22:08;;;;;;;2.97;2.20;;;;;;;;;;6136038;29;20301;-59
2024/03/19 04:25:12;;;;;;;3.60;2.37;;;;;;;;;;6135729;29;20309;-60
2024/03/19 04:28:15;;;;;;;4.30;2.30;;;;;;;;;;6136359;29;20313;-59
2024/03/19 04:31:17;;;;;;;2.10;2.10;;;;;;;;;;6136221;29;20294;-59
2024/03/19 04:34:21;;;;;;;2.50;2.30;;;;;;;;;;6135432;29;20290;-60
2024/03/19 04:37:23;;;;;;;2.00;1.90;;;;;;;;;;6145052;29;20305;-60
2024/03/19 04:40:28;;;;;;;2.10;2.00;;;;;;;;;;6153860;29;20293;-59
2024/03/19 04:43:32;;;;;;;2.00;1.90;;;;;;;;;;6136211;29;20293;-59
2024/03/19 04:46:36;;;;;;;2.40;1.90;;;;;;;;;;6136133;29;20525;-59
2024/03/19 04:49:39;;;;;;;1.93;1.93;;;;;;;;;;6134859;29;20297;-60
2024/03/19 04:52:42;;;;;;;2.27;2.17;;;;;;;;;;6136288;29;20310;-60
2024/03/19 04:55:46;;;;;;;2.33;2.23;;;;;;;;;;6135647;29;20295;-60
2024/03/19 04:58:50;;;;;;;2.10;2.10;;;;;;;;;;6139421;29;20311;-60
2024/03/19 05:01:52;;;;;;;2.40;2.17;;;;;;;;;;6140178;29;20294;-60
2024/03/19 05:04:55;;;;;;;2.00;2.00;;;;;;;;;;6139792;29;20301;-60
2024/03/19 05:07:59;;;;;;;6.13;2.20;;;;;;;;;;6140057;29;20355;-60
2024/03/19 05:11:03;;;;;;;2.43;2.17;;;;;;;;;;6144537;28;20302;-61
2024/03/19 05:14:06;;;;;;;2.23;2.10;;;;;;;;;;6163487;28;20284;-60
2024/03/19 05:17:09;;;;;;;3.03;2.17;;;;;;;;;;6163818;28;20288;-60
2024/03/19 05:20:12;;;;;;;3.10;2.10;;;;;;;;;;6163455;28;20292;-60
2024/03/19 05:23:16;;;;;;;2.47;2.27;;;;;;;;;;6163637;28;20425;-60
2024/03/19 05:26:20;;;;;;;2.20;2.20;;;;;;;;;;6163315;28;20297;-60
2024/03/19 05:29:23;;;;;;;2.20;2.10;;;;;;;;;;6163254;28;20293;-60
2024/03/19 05:32:26;;;;;;;4.10;2.13;;;;;;;;;;6163617;28;20407;-59
2024/03/19 05:35:29;;;;;;;2.30;2.27;;;;;;;;;;6162940;28;20292;-59
2024/03/19 05:38:31;;;;;;;3.70;2.20;;;;;;;;;;6162836;28;20294;-60
2024/03/19 05:41:36;;;;;;;2.17;2.03;;;;;;;;;;6164279;28;20302;-59
2024/03/19 05:44:39;;;;;;;2.10;2.00;;;;;;;;;;6138979;29;20302;-60
2024/03/19 05:47:42;;;;;;;2.17;1.93;;;;;;;;;;6139618;29;20586;-60
2024/03/19 05:50:45;;;;;;;2.90;2.07;;;;;;;;;;6138640;29;20597;-60
2024/03/19 05:53:48;;;;;;;2.07;2.07;;;;;;;;;;6138695;29;20313;-60
2024/03/19 05:56:52;;;;;;;1.77;1.70;;;;;;;;;;6139363;29;20485;-60
2024/03/19 05:59:55;;;;;;;2.17;1.97;;;;;;;;;;6138307;29;20302;-60
2024/03/19 06:02:58;;;;;;;2.13;1.90;;;;;;;;;;6138932;29;20481;-60
2024/03/19 06:06:08;;;;;;;1.57;1.57;;;;;;;;;;6138490;29;20469;-60
2024/03/19 06:09:11;;;;;;;1.80;1.60;;;;;;;;;;6137437;29;20290;-60
2024/03/19 06:12:15;;;;;;;2.33;2.10;;;;;;;;;;6153410;29;20304;-60
2024/03/19 06:15:18;;;;;;;1.90;1.77;;;;;;;;;;6128213;29;20326;-60
2024/03/19 06:18:21;;;;;;;2.30;1.73;;;;;;;;;;6115117;29;20491;-60
2024/03/19 06:21:24;;;;;;;2.53;1.80;;;;;;;;;;6114368;29;20299;-60
2024/03/19 06:24:26;;;;;;;3.30;2.07;;;;;;;;;;6114547;29;20294;-60
2024/03/19 06:27:31;;;;;;;3.20;1.90;;;;;;;;;;6114745;29;20292;-59
2024/03/19 06:30:34;;;;;;;1.80;1.80;;;;;;;;;;6114243;29;20323;-60
2024/03/19 06:33:37;;;;;;;4.33;2.10;;;;;;;;;;6114631;29;20491;-60
2024/03/19 06:36:40;;;;;;;6.07;1.90;;;;;;;;;;6113683;29;20307;-60
2024/03/19 06:39:43;;;;;;;2.73;2.20;;;;;;;;;;6113955;29;20591;-60
2024/03/19 06:42:47;;;;;;;3.13;2.20;;;;;;;;;;6114660;29;20600;-60
2024/03/19 06:45:50;;;;;;;7.93;2.40;;;;;;;;;;6113882;29;20598;-60
2024/03/19 06:48:53;;;;;;;3.03;2.10;;;;;;;;;;6113338;29;20576;-61
2024/03/19 06:51:56;;;;;;;4.87;1.90;;;;;;;;;;6130019;29;20423;-59
2024/03/19 06:54:59;;;;;;;2.83;2.63;;;;;;;;;;6113687;29;20294;-60
2024/03/19 06:58:04;;;;;;;2.20;2.10;;;;;;;;;;6098382;29;20548;-61
2024/03/19 07:01:09;;;;;;;11.47;2.00;;;;;;;;;;6114017;29;20307;-60
2024/03/19 07:04:12;;;;;;;6.70;1.80;;;;;;;;;;6113594;29;20292;-61
2024/03/19 07:07:16;;;;;;;1.70;1.63;;;;;;;;;;6114344;29;20472;-60
2024/03/19 07:10:19;;;;;;;5.50;2.13;;;;;;;;;;6113668;29;20299;-60
2024/03/19 07:13:24;;;;;;;6.27;2.03;;;;;;;;;;6161145;29;20469;-61
2024/03/19 07:16:27;;;;;;;2.70;2.00;;;;;;;;;;6160802;29;20310;-61
2024/03/19 07:19:29;;;;;;;3.70;2.00;;;;;;;;;;6160581;28;20466;-60
2024/03/19 07:22:32;;;;;;;4.30;1.80;;;;;;;;;;6160772;29;20289;-60
2024/03/19 07:25:35;;;;;;;1.83;1.83;;;;;;;;;;6160541;29;20439;-61
2024/03/19 07:28:39;;;;;;;1.73;1.73;;;;;;;;;;6161152;29;20297;-61
2024/03/19 07:31:43;;;;;;;5.83;2.20;;;;;;;;;;6160198;28;20286;-60
2024/03/19 07:34:46;;;;;;;3.70;1.90;;;;;;;;;;6160434;28;20298;-60
2024/03/19 07:37:49;;;;;;;5.43;1.60;;;;;;;;;;6160944;28;20295;-60
2024/03/19 07:40:52;;;;;;;4.10;2.33;;;;;;;;;;6151580;29;20304;-61
2024/03/19 07:43:57;;;;;;;6.50;1.80;;;;;;;;;;6136566;29;20300;-60
2024/03/19 07:47:00;;;;;;;5.00;1.70;;;;;;;;;;6136763;29;20415;-60
2024/03/19 07:50:07;;;;;;;5.00;1.80;;;;;;;;;;6136326;29;20311;-59
2024/03/19 07:53:11;;;;;;;2.33;1.50;;;;;;;;;;6136934;29;20292;-60
2024/03/19 07:56:13;;;;;;;2.83;1.90;;;;;;;;;;6136363;29;20279;-59
2024/03/19 07:59:18;;;;;;;8.10;1.87;;;;;;;;;;6135796;29;20294;-60
2024/03/19 08:02:21;;;;;;;3.03;1.73;;;;;;;;;;6136367;29;20296;-59
2024/03/19 08:05:24;;;;;;;3.33;2.07;;;;;;;;;;6136137;29;20303;-60
2024/03/19 08:08:26;;;;;;;2.47;1.60;;;;;;;;;;6136336;29;20326;-59
2024/03/19 08:11:30;;;;;;;6.97;2.07;;;;;;;;;;6144612;28;20575;-59
2024/03/19 08:14:35;;;;;;;2.13;1.60;;;;;;;;;;6159663;28;20603;-60
2024/03/19 08:17:37;;;;;;;1.77;1.63;;;;;;;;;;6160310;28;20522;-60
2024/03/19 08:20:40;;;;;;;5.53;1.80;;;;;;;;;;6159282;29;20516;-61
2024/03/19 08:23:46;;;;;;;3.07;1.60;;;;;;;;;;6159565;28;20489;-61
2024/03/19 08:26:49;;;;;;;1.40;1.40;;;;;;;;;;6160023;29;20293;-60
2024/03/19 08:29:53;;;;;;;5.20;1.57;;;;;;;;;;6159664;28;20299;-60
2024/03/19 08:32:56;;;;;;;5.80;2.00;;;;;;;;;;6162825;28;20306;-60
2024/03/19 08:35:59;;;;;;;5.20;1.50;;;;;;;;;;6164450;29;20294;-60
2024/03/19 08:39:04;;;;;;;5.70;1.67;;;;;;;;;;6164178;28;20878;-60
2024/03/19 08:42:06;;;;;;;2.27;1.47;;;;;;;;;;6146201;29;20292;-61
2024/03/19 08:45:11;;;;;;;3.83;1.67;;;;;;;;;;6140394;29;20301;-59
2024/03/19 08:48:14;;;;;;;6.30;2.43;;;;;;;;;;6140806;29;20285;-60
2024/03/19 08:51:17;;;;;;;7.23;1.60;;;;;;;;;;6140092;29;20291;-59
2024/03/19 08:54:20;;;;;;;3.57;1.30;;;;;;;;;;6140081;29;20291;-59
2024/03/19 08:57:23;;;;;;;1.37;1.30;;;;;;;;;;6140734;29;20290;-60
2024/03/19 09:00:27;;;;;;;4.30;1.47;;;;;;;;;;6139654;29;20319;-59
2024/03/19 09:03:30;;;;;;;3.23;1.70;;;;;;;;;;6139565;29;20579;-60
2024/03/19 09:06:33;;;;;;;2.67;1.40;;;;;;;;;;6139495;29;20349;-60
2024/03/19 09:09:36;;;;;;;5.00;1.53;;;;;;;;;;6139321;29;20303;-60
2024/03/19 09:12:38;;;;;;;2.43;1.10;;;;;;;;;;6157539;29;20298;-60
2024/03/19 09:15:42;;;;;;;5.30;1.40;;;;;;;;;;6162930;29;20306;-60
2024/03/19 09:18:45;;;;;;;5.43;1.13;;;;;;;;;;6163435;28;20302;-59
2024/03/19 09:21:49;;;;;;;3.43;1.57;;;;;;;;;;6163669;29;20527;-59
2024/03/19 09:24:52;;;;;;;3.93;1.53;;;;;;;;;;6179016;28;20297;-59
2024/03/19 09:27:54;;;;;;;7.47;1.30;;;;;;;;;;6163309;28;20294;-60
2024/03/19 09:30:59;;;;;;;5.87;1.37;;;;;;;;;;6162950;29;20627;-61
2024/03/19 09:34:02;;;;;;;1.27;1.27;;;;;;;;;;6163084;28;20309;-60
2024/03/19 09:37:05;;;;;;;5.17;1.30;;;;;;;;;;6163088;29;20390;-59
2024/03/19 09:40:10;;;;;;;4.13;1.40;;;;;;;;;;6159729;28;20290;-62
2024/03/19 09:43:21;;;;;;;2.17;1.70;;;;;;;;;;6139220;29;20342;-60
2024/03/19 09:46:26;;;;;;;5.90;1.80;;;;;;;;;;6122872;29;20294;-59
2024/03/19 09:49:32;;;;;;;2.57;1.40;;;;;;;;;;6138846;29;20294;-59
2024/03/19 09:52:35;;;;;;;5.67;1.30;;;;;;;;;;6138742;29;20305;-59
2024/03/19 09:55:38;;;;;;;2.00;1.20;;;;;;;;;;6138311;29;20298;-60
2024/03/19 09:58:41;;;;;;;1.70;1.40;;;;;;;;;;6138430;29;20298;-61
2024/03/19 10:01:46;;;;;;;3.87;1.23;;;;;;;;;;6138706;29;20298;-58
2024/03/19 10:04:49;;;;;;;7.40;1.43;;;;;;;;;;6138121;29;20489;-59
2024/03/19 10:07:53;;;;;;;9.07;1.30;;;;;;;;;;6138885;29;20298;-60
2024/03/19 10:10:56;;;;;;;1.50;1.50;;;;;;;;;;6142549;28;20299;-61
2024/03/19 10:13:59;;;;;;;9.83;1.57;;;;;;;;;;6161672;28;20310;-60
2024/03/19 10:17:04;;;;;;;1.43;1.37;;;;;;;;;;6162726;28;20281;-60
2024/03/19 10:20:11;;;;;;;4.43;1.27;;;;;;;;;;6162083;28;20294;-60
2024/03/19 10:23:14;;;;;;;4.30;1.60;;;;;;;;;;6162257;28;20298;-61
2024/03/19 10:26:18;;;;;;;1.70;1.47;;;;;;;;;;6161925;28;20294;-61
2024/03/19 10:29:21;;;;;;;2.60;1.47;;;;;;;;;;6161774;28;20301;-60
2024/03/19 10:32:26;;;;;;;13.67;1.50;;;;;;;;;;6162359;28;20317;-59
2024/03/19 10:35:29;;;;;;;3.10;1.30;;;;;;;;;;6161567;28;20291;-61
2024/03/19 10:38:32;;;;;;;2.73;1.33;;;;;;;;;;6161814;28;20290;-60
2024/03/19 10:41:34;;;;;;;7.67;1.70;;;;;;;;;;6146846;29;20311;-60
2024/03/19 10:44:39;;;;;;;2.13;1.40;;;;;;;;;;6137340;29;20387;-60
2024/03/19 10:47:44;;;;;;;4.70;1.40;;;;;;;;;;6138005;29;20291;-59
2024/03/19 10:50:49;;;;;;;4.53;1.30;;;;;;;;;;6137089;29;20305;-59
2024/03/19 10:53:52;;;;;;;4.40;1.30;;;;;;;;;;6137018;29;20297;-59
2024/03/19 10:56:57;;;;;;;1.20;1.20;;;;;;;;;;6137326;29;20292;-59
2024/03/19 11:00:00;;;;;;;11.00;1.70;;;;;;;;;;6137037;29;20300;-59
2024/03/19 11:03:05;;;;;;;4.20;1.50;;;;;;;;;;6137597;29;20292;-60
2024/03/19 11:06:20;;;;;;;18.50;1.77;;;;;;;;;;6137188;29;20296;-61
2024/03/19 11:09:26;;;;;;;2.27;1.30;;;;;;;;;;6136744;29;20470;-62
2024/03/19 11:12:29;;;;;;;1.53;1.43;;;;;;;;;;6154199;29;20294;-61
2024/03/19 11:15:32;;;;;;;2.37;1.47;;;;;;;;;;6159839;29;20299;-61
2024/03/19 11:18:43;;;;;;;5.20;1.40;;;;;;;;;;6161037;28;20301;-60
2024/03/19 11:21:46;;;;;;;6.97;1.87;;;;;;;;;;6160835;29;20356;-59
2024/03/19 11:24:51;;;;;;;1.50;1.27;;;;;;;;;;6160592;29;20459;-60
2024/03/19 11:27:56;;;;;;;1.10;1.10;;;;;;;;;;6161035;29;20307;-60
2024/03/19 11:30:59;;;;;;;3.90;1.23;;;;;;;;;;6160999;28;20479;-60
2024/03/19 11:34:04;;;;;;;6.33;1.70;;;;;;;;;;6160900;28;20300;-60
2024/03/19 11:37:11;;;;;;;1.30;1.30;;;;;;;;;;6160007;28;20304;-60
2024/03/19 11:40:14;;;;;;;8.20;1.37;;;;;;;;;;6156796;29;20472;-60
2024/03/19 11:43:18;;;;;;;1.33;1.23;;;;;;;;;;6137270;29;20295;-61
2024/03/19 11:46:22;;;;;;;6.60;1.47;;;;;;;;;;6136650;29;20301;-60
2024/03/19 11:49:27;;;;;;;2.03;1.10;;;;;;;;;;6134621;29;20298;-60
2024/03/19 11:52:34;;;;;;;3.07;1.13;;;;;;;;;;6137233;29;20602;-60
2024/03/19 11:55:39;;;;;;;1.73;1.03;;;;;;;;;;6136553;29;20539;-61
2024/03/19 11:58:43;;;;;;;2.40;1.20;;;;;;;;;;6135797;29;20303;-60
2024/03/19 12:01:46;;;;;;;2.90;1.10;;;;;;;;;;6136306;29;20294;-61
2024/03/19 12:04:50;;;;;;;8.10;1.60;;;;;;;;;;6135989;29;20590;-61
2024/03/19 12:07:53;;;;;;;4.20;1.50;;;;;;;;;;6139405;29;20297;-60
2024/03/19 12:11:03;;;;;;;1.30;1.20;;;;;;;;;;6145246;28;20297;-59
2024/03/19 12:14:07;;;;;;;1.43;1.00;;;;;;;;;;6164908;28;20293;-59
2024/03/19 12:17:13;;;;;;;1.30;1.10;;;;;;;;;;6165195;28;20285;-60
2024/03/19 12:20:18;;;;;;;1.80;1.10;;;;;;;;;;6164462;28;20293;-61
2024/03/19 12:23:20;;;;;;;1.43;1.20;;;;;;;;;;6165388;28;20288;-59
2024/03/19 12:26:23;;;;;;;5.13;1.40;;;;;;;;;;6180449;28;20606;-60
2024/03/19 12:29:26;;;;;;;3.50;1.60;;;;;;;;;;6164639;28;20292;-60
2024/03/19 12:32:47;;;;;;;7.37;1.43;;;;;;;;;;6164760;28;20301;-60
2024/03/19 12:35:51;;;;;;;8.80;1.27;;;;;;;;;;6164294;28;20298;-59
2024/03/19 12:38:54;;;;;;;2.23;1.20;;;;;;;;;;6163876;28;20305;-59
2024/03/19 12:41:57;;;;;;;3.67;1.07;;;;;;;;;;6147022;29;20608;-59
2024/03/19 12:45:00;;;;;;;5.60;1.23;;;;;;;;;;6140392;29;20477;-60
2024/03/19 12:48:03;;;;;;;5.70;1.50;;;;;;;;;;6140300;29;20298;-59
2024/03/19 12:51:08;;;;;;;1.43;1.10;;;;;;;;;;6139842;29;20306;-60
2024/03/19 12:54:11;;;;;;;3.60;1.20;;;;;;;;;;6140191;29;20363;-59
2024/03/19 12:57:14;;;;;;;1.67;1.30;;;;;;;;;;6140737;29;20290;-60
2024/03/19 13:00:22;;;;;;;2.87;1.23;;;;;;;;;;6139923;29;20302;-60
2024/03/19 13:03:25;;;;;;;5.03;1.20;;;;;;;;;;6140111;29;20470;-59
2024/03/19 13:06:29;;;;;;;8.80;1.67;;;;;;;;;;6139621;29;20449;-60
2024/03/19 13:09:32;;;;;;;1.90;1.27;;;;;;;;;;6139743;29;20318;-60
2024/03/19 13:12:35;;;;;;;1.13;1.03;;;;;;;;;;6157317;29;20293;-59
2024/03/19 13:15:38;;;;;;;2.50;1.30;;;;;;;;;;6163359;29;20479;-60
2024/03/19 13:18:41;;;;;;;4.30;1.30;;;;;;;;;;6163557;28;20293;-60
2024/03/19 13:21:45;;;;;;;1.53;1.10;;;;;;;;;;6163064;29;20297;-60
2024/03/19 13:24:48;;;;;;;5.83;1.77;;;;;;;;;;6163375;29;20294;-60
2024/03/19 13:27:51;;;;;;;2.97;1.30;;;;;;;;;;6164074;29;20290;-61
2024/03/19 13:30:53;;;;;;;2.77;1.23;;;;;;;;;;6163269;28;20456;-60
2024/03/19 13:33:56;;;;;;;3.23;1.40;;;;;;;;;;6162915;28;20296;-60
2024/03/19 13:37:00;;;;;;;1.10;1.10;;;;;;;;;;6163514;29;20313;-59
2024/03/19 13:40:04;;;;;;;3.10;1.20;;;;;;;;;;6160740;29;20298;-60
2024/03/19 13:43:07;;;;;;;6.43;1.70;;;;;;;;;;6139424;29;20576;-58
2024/03/19 13:46:12;;;;;;;5.70;1.40;;;;;;;;;;6138619;29;20302;-59
2024/03/19 13:49:24;;;;;;;2.87;1.37;;;;;;;;;;6138948;29;20287;-59
2024/03/19 13:52:28;;;;;;;1.20;1.20;;;;;;;;;;6139669;29;20286;-60
2024/03/19 13:55:31;;;;;;;1.93;0.93;;;;;;;;;;6139112;29;20330;-61
2024/03/19 13:58:34;;;;;;;3.87;1.23;;;;;;;;;;6139029;29;20298;-59
2024/03/19 14:01:37;;;;;;;1.80;1.00;;;;;;;;;;6138316;29;20307;-59
2024/03/19 14:04:40;;;;;;;2.10;1.10;;;;;;;;;;6137749;29;20299;-60
2024/03/19 14:07:44;;;;;;;1.63;1.30;;;;;;;;;;6138833;29;20291;-60
2024/03/19 14:10:50;;;;;;;6.90;1.23;;;;;;;;;;6141574;28;20329;-60
2024/03/19 14:13:53;;;;;;;5.53;1.17;;;;;;;;;;6162160;28;20298;-60
2024/03/19 14:16:56;;;;;;;8.47;1.60;;;;;;;;;;6162644;28;20290;-60
2024/03/19 14:19:59;;;;;;;5.53;1.23;;;;;;;;;;6162017;28;20595;-60
2024/03/19 14:23:03;;;;;;;2.67;1.50;;;;;;;;;;6162522;28;20586;-60
2024/03/19 14:26:06;;;;;;;4.23;1.63;;;;;;;;;;6161720;28;20298;-60
2024/03/19 14:29:09;;;;;;;1.33;1.30;;;;;;;;;;6161075;28;20578;-59
2024/03/19 14:32:13;;;;;;;5.37;1.70;;;;;;;;;;6160742;28;20513;-59
2024/03/19 14:35:16;;;;;;;6.37;1.47;;;;;;;;;;6161703;28;20294;-60
2024/03/19 14:38:20;;;;;;;3.97;1.60;;;;;;;;;;6162239;28;20581;-61
2024/03/19 14:41:23;;;;;;;2.60;1.50;;;;;;;;;;6148700;29;20672;-60
2024/03/19 14:44:26;;;;;;;3.80;1.37;;;;;;;;;;6137733;29;20314;-61
2024/03/19 14:47:28;;;;;;;2.30;1.20;;;;;;;;;;6137997;29;20470;-62
2024/03/19 14:50:31;;;;;;;1.60;1.50;;;;;;;;;;6137325;29;20298;-60
2024/03/19 14:53:36;;;;;;;8.13;1.43;;;;;;;;;;6137649;29;20318;-61
2024/03/19 14:56:39;;;;;;;1.27;1.20;;;;;;;;;;6137230;29;20307;-60
2024/03/19 14:59:41;;;;;;;1.33;1.03;;;;;;;;;;6137209;29;20298;-60
2024/03/19 15:02:44;;;;;;;1.33;1.30;;;;;;;;;;6137700;29;20300;-60
2024/03/19 15:05:47;;;;;;;6.13;1.23;;;;;;;;;;6137471;29;20302;-59
2024/03/19 15:08:52;;;;;;;2.67;1.23;;;;;;;;;;6137225;29;20296;-60
2024/03/19 15:11:54;;;;;;;2.73;1.10;;;;;;;;;;6149403;29;20602;-59
2024/03/19 15:14:57;;;;;;;2.80;1.30;;;;;;;;;;6160874;29;20301;-59
2024/03/19 15:18:00;;;;;;;4.47;1.23;;;;;;;;;;6161123;29;20291;-59
2024/03/19 15:21:03;;;;;;;3.37;1.30;;;;;;;;;;6160764;29;20301;-59
2024/03/19 15:24:11;;;;;;;6.67;1.30;;;;;;;;;;6160596;28;20301;-59
2024/03/19 15:27:14;;;;;;;5.50;1.33;;;;;;;;;;6160829;29;20296;-61
2024/03/19 15:30:17;;;;;;;6.23;1.40;;;;;;;;;;6160392;29;20297;-60
2024/03/19 15:33:20;;;;;;;1.60;1.30;;;;;;;;;;6161353;29;20292;-60
2024/03/19 15:36:22;;;;;;;3.07;1.43;;;;;;;;;;6160051;28;20291;-61
2024/03/19 15:39:27;;;;;;;3.80;1.27;;;;;;;;;;6160178;28;20601;-60
2024/03/19 15:42:29;;;;;;;3.70;1.43;;;;;;;;;;6139232;29;20305;-61
2024/03/19 15:45:32;;;;;;;3.37;1.30;;;;;;;;;;6136359;29;20318;-61
2024/03/19 15:48:38;;;;;;;2.67;1.47;;;;;;;;;;6120481;29;20292;-62
2024/03/19 15:51:40;;;;;;;3.83;1.20;;;;;;;;;;6136412;29;20318;-62
2024/03/19 15:54:45;;;;;;;3.67;1.30;;;;;;;;;;6136062;29;20330;-61
2024/03/19 15:57:47;;;;;;;9.00;1.23;;;;;;;;;;6137018;29;20288;-62
2024/03/19 16:00:50;;;;;;;1.10;1.10;;;;;;;;;;6136283;29;20290;-60
2024/03/19 16:03:53;;;;;;;4.37;1.23;;;;;;;;;;6135771;29;20448;-60
2024/03/19 16:06:56;;;;;;;2.47;1.33;;;;;;;;;;6136526;29;20342;-60
2024/03/19 16:10:01;;;;;;;7.37;1.63;;;;;;;;;;6136251;29;20315;-61
2024/03/19 16:13:04;;;;;;;2.90;1.17;;;;;;;;;;6157787;29;20288;-61
2024/03/19 16:16:07;;;;;;;3.90;1.30;;;;;;;;;;6159515;29;20301;-60
2024/03/19 16:19:10;;;;;;;3.77;1.47;;;;;;;;;;6159755;28;20289;-60
2024/03/19 16:22:13;;;;;;;1.30;1.30;;;;;;;;;;6160143;29;20590;-62
2024/03/19 16:25:19;;;;;;;5.13;1.37;;;;;;;;;;6159544;29;20481;-61
2024/03/19 16:28:22;;;;;;;2.13;1.33;;;;;;;;;;6160214;29;20284;-59
2024/03/19 16:31:25;;;;;;;3.83;1.50;;;;;;;;;;6159734;29;20528;-60
2024/03/19 16:34:27;;;;;;;6.63;1.37;;;;;;;;;;6159656;28;20295;-60
2024/03/19 16:37:30;;;;;;;1.90;1.30;;;;;;;;;;6160071;29;20298;-60
2024/03/19 16:40:36;;;;;;;3.80;1.33;;;;;;;;;;6151742;29;20483;-60
2024/03/19 16:43:39;;;;;;;4.80;1.33;;;;;;;;;;6136018;29;20313;-60
2024/03/19 16:46:42;;;;;;;5.03;1.50;;;;;;;;;;6134882;29;20292;-60
2024/03/19 16:49:45;;;;;;;4.97;1.40;;;;;;;;;;6135162;29;20299;-62
2024/03/19 16:52:48;;;;;;;8.03;1.50;;;;;;;;;;6136979;29;20296;-60
2024/03/19 16:55:52;;;;;;;1.30;1.30;;;;;;;;;;6139648;29;20329;-60
2024/03/19 16:58:56;;;;;;;6.03;1.60;;;;;;;;;;6139623;29;20300;-60
2024/03/19 17:01:58;;;;;;;1.37;1.30;;;;;;;;;;6140251;29;20304;-60
2024/03/19 17:05:02;;;;;;;4.20;1.50;;;;;;;;;;6139433;29;20295;-60
2024/03/19 17:08:05;;;;;;;4.27;1.73;;;;;;;;;;6139796;29;20295;-60
2024/03/19 17:11:11;;;;;;;4.57;1.50;;;;;;;;;;6145064;28;20306;-60
2024/03/19 17:14:15;;;;;;;2.20;1.65;;;;;;;;;;6163003;28;20293;-60
2024/03/19 17:17:18;;;;;;;3.10;1.57;;;;;;;;;;6163950;28;20287;-61
2024/03/19 17:20:21;;;;;;;5.83;1.53;;;;;;;;;;6163155;28;20593;-60
2024/03/19 17:23:24;;;;;;;6.70;1.60;;;;;;;;;;6163530;28;20301;-62
2024/03/19 17:26:28;;;;;;;2.57;1.63;;;;;;;;;;6163270;28;20308;-62
2024/03/19 17:29:31;;;;;;;4.70;1.70;;;;;;;;;;6162837;28;20281;-60
2024/03/19 17:32:34;;;;;;;3.90;1.80;;;;;;;;;;6163350;28;20352;-60
2024/03/19 17:35:39;;;;;;;3.10;1.60;;;;;;;;;;6162567;28;20314;-61
2024/03/19 17:38:42;;;;;;;3.20;1.77;;;;;;;;;;6162634;29;20309;-61
2024/03/19 17:41:47;;;;;;;2.10;1.97;;;;;;;;;;6146799;29;20290;-59
2024/03/19 17:44:49;;;;;;;5.67;1.73;;;;;;;;;;6138908;29;20318;-60
2024/03/19 17:47:52;;;;;;;4.57;1.57;;;;;;;;;;6139792;29;20467;-60
2024/03/19 17:50:55;;;;;;;1.50;1.50;;;;;;;;;;6123218;29;20617;-61
2024/03/19 17:53:58;;;;;;;2.40;1.60;;;;;;;;;;6139045;29;20302;-60
2024/03/19 17:57:03;;;;;;;1.53;1.53;;;;;;;;;;6115448;29;20386;-61
2024/03/19 18:00:08;;;;;;;3.70;1.57;;;;;;;;;;6138035;29;20291;-60
2024/03/19 18:03:12;;;;;;;2.37;1.60;;;;;;;;;;6138748;29;20300;-58
2024/03/19 18:06:16;;;;;;;5.73;1.50;;;;;;;;;;6138235;29;20477;-59
2024/03/19 18:09:18;;;;;;;1.70;1.60;;;;;;;;;;6138408;29;20291;-63
2024/03/19 18:12:23;;;;;;;1.80;1.80;;;;;;;;;;6153715;29;20284;-59
2024/03/19 18:15:26;;;;;;;2.03;1.73;;;;;;;;;;6149627;29;20296;-60
2024/03/19 18:18:29;;;;;;;1.90;1.80;;;;;;;;;;6115034;29;20292;-59
2024/03/19 18:21:31;;;;;;;3.33;2.05;;;;;;;;;;6113861;29;20502;-60